sensor_id;sensor_type;location;lat;lon;timestamp;P1;durP1;ratioP1;P2;durP2;ratioP2
1010;SDS011;494;48.744;10.106;2023-08-30T00:36:53;34.50;;;23.97;;
1010;SDS011;494;48.744;10.106;2023-08-30T00:39:22;35.10;;;21.33;;
1010;SDS011;494;48.744;10.106;2023-08-30T00:41:57;32.00;;;21.13;;
1010;SDS011;494;48.744;10.106;2023-08-30T00:44:32;27.40;;;20.47;;
1010;SDS011;494;48.744;10.106;2023-08-30T00:47:05;27.50;;;19.23;;
1010;SDS011;494;48.744;10.106;2023-08-30T01:06:29;26.57;;;19.40;;
1010;SDS011;494;48.744;10.106;2023-08-30T01:09:02;24.80;;;17.70;;
1010;SDS011;494;48.744;10.106;2023-08-30T01:11:34;25.33;;;16.90;;
1010;SDS011;494;48.744;10.106;2023-08-30T01:14:40;20.87;;;14.70;;
1010;SDS011;494;48.744;10.106;2023-08-30T01:17:28;23.43;;;15.53;;
1010;SDS011;494;48.744;10.106;2023-08-30T01:20:05;21.20;;;14.37;;
1010;SDS011;494;48.744;10.106;2023-08-30T01:22:53;23.17;;;16.57;;
1010;SDS011;494;48.744;10.106;2023-08-30T01:25:33;27.40;;;17.37;;
1010;SDS011;494;48.744;10.106;2023-08-30T01:28:53;29.90;;;19.70;;
1010;SDS011;494;48.744;10.106;2023-08-30T01:31:45;29.83;;;20.90;;
1010;SDS011;494;48.744;10.106;2023-08-30T01:34:27;30.17;;;19.90;;
1010;SDS011;494;48.744;10.106;2023-08-30T01:36:59;29.40;;;19.60;;
1010;SDS011;494;48.744;10.106;2023-08-30T01:39:30;34.20;;;20.80;;
1010;SDS011;494;48.744;10.106;2023-08-30T01:42:01;25.73;;;17.70;;
1010;SDS011;494;48.744;10.106;2023-08-30T01:44:37;25.37;;;17.13;;
1010;SDS011;494;48.744;10.106;2023-08-30T01:47:13;22.30;;;15.80;;
1010;SDS011;494;48.744;10.106;2023-08-30T01:49:45;19.57;;;14.87;;
1010;SDS011;494;48.744;10.106;2023-08-30T01:52:15;25.13;;;15.23;;
1010;SDS011;494;48.744;10.106;2023-08-30T01:54:47;21.73;;;16.10;;
1010;SDS011;494;48.744;10.106;2023-08-30T01:57:23;21.47;;;15.00;;
1010;SDS011;494;48.744;10.106;2023-08-30T01:59:59;21.60;;;13.23;;
1010;SDS011;494;48.744;10.106;2023-08-30T02:02:35;19.53;;;13.40;;
1010;SDS011;494;48.744;10.106;2023-08-30T02:05:06;21.30;;;13.20;;
1010;SDS011;494;48.744;10.106;2023-08-30T02:07:42;24.50;;;14.43;;
1010;SDS011;494;48.744;10.106;2023-08-30T02:10:21;21.73;;;13.63;;
1010;SDS011;494;48.744;10.106;2023-08-30T02:13:06;20.77;;;12.93;;
1010;SDS011;494;48.744;10.106;2023-08-30T02:15:51;19.10;;;13.93;;
1010;SDS011;494;48.744;10.106;2023-08-30T02:49:01;23.77;;;13.77;;
1010;SDS011;494;48.744;10.106;2023-08-30T02:57:17;18.60;;;13.30;;
1010;SDS011;494;48.744;10.106;2023-08-30T02:59:46;18.80;;;13.40;;
1010;SDS011;494;48.744;10.106;2023-08-30T03:02:15;18.30;;;13.43;;
1010;SDS011;494;48.744;10.106;2023-08-30T03:04:50;18.70;;;13.40;;
1010;SDS011;494;48.744;10.106;2023-08-30T03:07:21;17.83;;;13.00;;
1010;SDS011;494;48.744;10.106;2023-08-30T03:09:51;20.93;;;13.57;;
1010;SDS011;494;48.744;10.106;2023-08-30T03:12:23;20.90;;;14.63;;
1010;SDS011;494;48.744;10.106;2023-08-30T03:14:52;19.60;;;13.63;;
1010;SDS011;494;48.744;10.106;2023-08-30T03:17:24;20.17;;;13.50;;
1010;SDS011;494;48.744;10.106;2023-08-30T03:19:57;20.30;;;14.33;;
1010;SDS011;494;48.744;10.106;2023-08-30T03:22:48;20.80;;;14.23;;
1010;SDS011;494;48.744;10.106;2023-08-30T03:25:18;20.37;;;14.37;;
1010;SDS011;494;48.744;10.106;2023-08-30T03:27:47;25.07;;;15.30;;
1010;SDS011;494;48.744;10.106;2023-08-30T03:30:20;26.63;;;17.50;;
1010;SDS011;494;48.744;10.106;2023-08-30T03:32:53;22.00;;;16.50;;
1010;SDS011;494;48.744;10.106;2023-08-30T03:35:25;24.47;;;18.27;;
1010;SDS011;494;48.744;10.106;2023-08-30T03:38:04;26.40;;;17.67;;
1010;SDS011;494;48.744;10.106;2023-08-30T03:40:34;19.73;;;14.03;;
1010;SDS011;494;48.744;10.106;2023-08-30T03:43:09;17.00;;;12.23;;
1010;SDS011;494;48.744;10.106;2023-08-30T03:45:38;24.47;;;12.47;;
1010;SDS011;494;48.744;10.106;2023-08-30T03:48:08;17.77;;;11.67;;
1010;SDS011;494;48.744;10.106;2023-08-30T03:50:40;17.30;;;11.97;;
1010;SDS011;494;48.744;10.106;2023-08-30T03:53:15;17.73;;;11.60;;
1010;SDS011;494;48.744;10.106;2023-08-30T03:55:49;18.97;;;12.17;;
1010;SDS011;494;48.744;10.106;2023-08-30T03:58:27;20.33;;;13.13;;
1010;SDS011;494;48.744;10.106;2023-08-30T04:00:57;17.93;;;12.40;;
1010;SDS011;494;48.744;10.106;2023-08-30T04:11:50;19.27;;;13.27;;
1010;SDS011;494;48.744;10.106;2023-08-30T04:14:21;20.83;;;14.70;;
1010;SDS011;494;48.744;10.106;2023-08-30T04:16:54;24.23;;;15.97;;
1010;SDS011;494;48.744;10.106;2023-08-30T04:19:24;23.40;;;15.83;;
1010;SDS011;494;48.744;10.106;2023-08-30T04:21:54;20.63;;;15.37;;
1010;SDS011;494;48.744;10.106;2023-08-30T04:24:43;22.23;;;14.90;;
1010;SDS011;494;48.744;10.106;2023-08-30T04:27:17;25.87;;;15.07;;
1010;SDS011;494;48.744;10.106;2023-08-30T04:29:46;22.90;;;14.13;;
1010;SDS011;494;48.744;10.106;2023-08-30T04:32:16;21.63;;;13.63;;
1010;SDS011;494;48.744;10.106;2023-08-30T04:34:55;23.47;;;14.13;;
1010;SDS011;494;48.744;10.106;2023-08-30T04:37:30;21.50;;;15.00;;
1010;SDS011;494;48.744;10.106;2023-08-30T04:40:14;22.10;;;14.70;;
1010;SDS011;494;48.744;10.106;2023-08-30T04:42:46;19.90;;;14.30;;
1010;SDS011;494;48.744;10.106;2023-08-30T04:45:23;21.20;;;15.07;;
1010;SDS011;494;48.744;10.106;2023-08-30T04:47:52;23.33;;;16.87;;
1010;SDS011;494;48.744;10.106;2023-08-30T04:50:27;23.80;;;15.17;;
1010;SDS011;494;48.744;10.106;2023-08-30T04:52:58;24.60;;;14.60;;
1010;SDS011;494;48.744;10.106;2023-08-30T05:01:46;19.57;;;14.33;;
1010;SDS011;494;48.744;10.106;2023-08-30T05:04:15;23.07;;;14.57;;
1010;SDS011;494;48.744;10.106;2023-08-30T05:06:47;22.60;;;15.20;;
1010;SDS011;494;48.744;10.106;2023-08-30T05:09:18;22.60;;;15.47;;
1010;SDS011;494;48.744;10.106;2023-08-30T05:11:54;23.20;;;15.47;;
1010;SDS011;494;48.744;10.106;2023-08-30T05:14:29;23.23;;;14.77;;
1010;SDS011;494;48.744;10.106;2023-08-30T05:16:59;24.63;;;16.27;;
1010;SDS011;494;48.744;10.106;2023-08-30T05:19:31;22.83;;;16.47;;
1010;SDS011;494;48.744;10.106;2023-08-30T05:22:00;29.13;;;17.63;;
1010;SDS011;494;48.744;10.106;2023-08-30T05:24:30;24.77;;;16.80;;
1010;SDS011;494;48.744;10.106;2023-08-30T05:27:07;37.67;;;22.27;;
1010;SDS011;494;48.744;10.106;2023-08-30T05:29:41;85.57;;;23.40;;
1010;SDS011;494;48.744;10.106;2023-08-30T05:32:12;44.93;;;23.00;;
1010;SDS011;494;48.744;10.106;2023-08-30T05:34:41;68.30;;;22.80;;
1010;SDS011;494;48.744;10.106;2023-08-30T05:37:13;93.87;;;24.00;;
1010;SDS011;494;48.744;10.106;2023-08-30T05:39:42;65.60;;;23.07;;
1010;SDS011;494;48.744;10.106;2023-08-30T05:42:13;38.33;;;23.60;;
1010;SDS011;494;48.744;10.106;2023-08-30T05:44:43;46.57;;;24.40;;
1010;SDS011;494;48.744;10.106;2023-08-30T05:47:12;37.00;;;23.13;;
1010;SDS011;494;48.744;10.106;2023-08-30T05:49:44;36.53;;;23.80;;
1010;SDS011;494;48.744;10.106;2023-08-30T05:52:18;32.13;;;22.43;;
1010;SDS011;494;48.744;10.106;2023-08-30T05:54:48;29.17;;;20.77;;
1010;SDS011;494;48.744;10.106;2023-08-30T05:57:22;29.47;;;20.30;;
1010;SDS011;494;48.744;10.106;2023-08-30T05:59:52;26.17;;;18.40;;
1010;SDS011;494;48.744;10.106;2023-08-30T06:02:21;25.90;;;18.20;;
1010;SDS011;494;48.744;10.106;2023-08-30T06:04:51;30.73;;;18.47;;
1010;SDS011;494;48.744;10.106;2023-08-30T06:07:21;24.27;;;16.30;;
1010;SDS011;494;48.744;10.106;2023-08-30T06:09:52;27.13;;;19.37;;
1010;SDS011;494;48.744;10.106;2023-08-30T06:12:26;25.20;;;17.67;;
1010;SDS011;494;48.744;10.106;2023-08-30T06:14:56;27.10;;;18.70;;
1010;SDS011;494;48.744;10.106;2023-08-30T06:17:24;30.43;;;19.73;;
1010;SDS011;494;48.744;10.106;2023-08-30T06:19:54;27.67;;;19.20;;
1010;SDS011;494;48.744;10.106;2023-08-30T06:22:26;29.57;;;20.83;;
1010;SDS011;494;48.744;10.106;2023-08-30T06:24:56;27.67;;;19.17;;
1010;SDS011;494;48.744;10.106;2023-08-30T06:27:29;27.93;;;19.80;;
1010;SDS011;494;48.744;10.106;2023-08-30T06:30:05;26.20;;;19.53;;
1010;SDS011;494;48.744;10.106;2023-08-30T06:32:36;27.33;;;18.27;;
1010;SDS011;494;48.744;10.106;2023-08-30T06:35:05;28.23;;;19.73;;
1010;SDS011;494;48.744;10.106;2023-08-30T06:37:38;25.17;;;18.43;;
1010;SDS011;494;48.744;10.106;2023-08-30T06:40:07;27.80;;;20.47;;
1010;SDS011;494;48.744;10.106;2023-08-30T06:42:40;30.00;;;20.00;;
1010;SDS011;494;48.744;10.106;2023-08-30T06:45:12;24.47;;;17.73;;
1010;SDS011;494;48.744;10.106;2023-08-30T06:47:45;26.60;;;19.40;;
1010;SDS011;494;48.744;10.106;2023-08-30T06:50:15;28.63;;;19.17;;
1010;SDS011;494;48.744;10.106;2023-08-30T06:52:45;29.40;;;21.17;;
1010;SDS011;494;48.744;10.106;2023-08-30T06:55:14;30.33;;;21.63;;
1010;SDS011;494;48.744;10.106;2023-08-30T06:57:47;29.27;;;20.60;;
1010;SDS011;494;48.744;10.106;2023-08-30T07:00:17;29.93;;;20.13;;
1010;SDS011;494;48.744;10.106;2023-08-30T07:02:47;27.33;;;19.73;;
1010;SDS011;494;48.744;10.106;2023-08-30T07:05:17;28.40;;;19.63;;
1010;SDS011;494;48.744;10.106;2023-08-30T07:07:48;25.80;;;19.87;;
1010;SDS011;494;48.744;10.106;2023-08-30T07:10:25;26.20;;;19.43;;
1010;SDS011;494;48.744;10.106;2023-08-30T07:12:57;27.63;;;19.53;;
1010;SDS011;494;48.744;10.106;2023-08-30T07:15:29;24.40;;;18.53;;
1010;SDS011;494;48.744;10.106;2023-08-30T07:18:09;26.80;;;18.80;;
1010;SDS011;494;48.744;10.106;2023-08-30T08:09:23;18.23;;;12.20;;
1010;SDS011;494;48.744;10.106;2023-08-30T08:14:42;16.83;;;11.30;;
1010;SDS011;494;48.744;10.106;2023-08-30T08:17:14;20.40;;;11.87;;
1010;SDS011;494;48.744;10.106;2023-08-30T08:19:43;17.37;;;11.33;;
1010;SDS011;494;48.744;10.106;2023-08-30T08:25:13;16.83;;;11.20;;
1010;SDS011;494;48.744;10.106;2023-08-30T08:29:07;18.37;;;9.10;;
1010;SDS011;494;48.744;10.106;2023-08-30T08:31:55;16.77;;;9.80;;
1010;SDS011;494;48.744;10.106;2023-08-30T08:34:44;14.70;;;8.03;;
1010;SDS011;494;48.744;10.106;2023-08-30T08:37:39;15.10;;;8.50;;
1010;SDS011;494;48.744;10.106;2023-08-30T08:52:19;19.37;;;10.67;;
1010;SDS011;494;48.744;10.106;2023-08-30T09:09:50;14.83;;;7.90;;
1010;SDS011;494;48.744;10.106;2023-08-30T09:12:22;15.43;;;7.33;;
1010;SDS011;494;48.744;10.106;2023-08-30T09:23:17;16.17;;;8.23;;
1010;SDS011;494;48.744;10.106;2023-08-30T09:29:08;13.97;;;8.50;;
1010;SDS011;494;48.744;10.106;2023-08-30T09:32:20;13.50;;;6.70;;
1010;SDS011;494;48.744;10.106;2023-08-30T09:35:21;13.80;;;8.20;;
1010;SDS011;494;48.744;10.106;2023-08-30T09:38:53;12.53;;;6.37;;
1010;SDS011;494;48.744;10.106;2023-08-30T09:44:45;14.50;;;6.17;;
1010;SDS011;494;48.744;10.106;2023-08-30T09:47:39;12.57;;;6.67;;
1010;SDS011;494;48.744;10.106;2023-08-30T09:50:19;11.87;;;5.53;;
1010;SDS011;494;48.744;10.106;2023-08-30T09:53:06;10.80;;;5.10;;
1010;SDS011;494;48.744;10.106;2023-08-30T09:55:42;14.57;;;9.67;;
1010;SDS011;494;48.744;10.106;2023-08-30T10:01:17;10.97;;;4.80;;
1010;SDS011;494;48.744;10.106;2023-08-30T10:03:51;12.13;;;5.30;;
1010;SDS011;494;48.744;10.106;2023-08-30T12:33:45;11.57;;;3.67;;
1010;SDS011;494;48.744;10.106;2023-08-30T12:39:05;11.30;;;3.37;;
1010;SDS011;494;48.744;10.106;2023-08-30T12:41:35;10.60;;;3.70;;
1010;SDS011;494;48.744;10.106;2023-08-30T12:44:09;11.83;;;3.73;;
1010;SDS011;494;48.744;10.106;2023-08-30T12:46:40;12.77;;;3.40;;
1010;SDS011;494;48.744;10.106;2023-08-30T12:49:11;10.57;;;3.07;;
1010;SDS011;494;48.744;10.106;2023-08-30T12:51:40;13.63;;;6.40;;
1010;SDS011;494;48.744;10.106;2023-08-30T12:54:15;12.43;;;6.13;;
1010;SDS011;494;48.744;10.106;2023-08-30T12:56:52;12.47;;;7.10;;
1010;SDS011;494;48.744;10.106;2023-08-30T12:59:21;12.87;;;6.67;;
1010;SDS011;494;48.744;10.106;2023-08-30T13:01:57;13.00;;;6.63;;
1010;SDS011;494;48.744;10.106;2023-08-30T13:04:35;13.37;;;6.50;;
1010;SDS011;494;48.744;10.106;2023-08-30T13:07:05;12.80;;;5.80;;
1010;SDS011;494;48.744;10.106;2023-08-30T13:09:35;12.30;;;6.60;;
1010;SDS011;494;48.744;10.106;2023-08-30T13:12:06;12.30;;;6.10;;
1010;SDS011;494;48.744;10.106;2023-08-30T13:14:35;12.90;;;6.13;;
1010;SDS011;494;48.744;10.106;2023-08-30T13:17:05;12.20;;;5.70;;
1010;SDS011;494;48.744;10.106;2023-08-30T13:19:36;14.47;;;6.27;;
1010;SDS011;494;48.744;10.106;2023-08-30T13:22:09;13.40;;;6.27;;
1010;SDS011;494;48.744;10.106;2023-08-30T13:24:38;13.67;;;6.40;;
1010;SDS011;494;48.744;10.106;2023-08-30T13:27:07;13.93;;;6.67;;
1010;SDS011;494;48.744;10.106;2023-08-30T13:29:42;12.00;;;6.13;;
1010;SDS011;494;48.744;10.106;2023-08-30T13:32:11;13.67;;;6.57;;
1010;SDS011;494;48.744;10.106;2023-08-30T13:34:41;12.83;;;7.13;;
1010;SDS011;494;48.744;10.106;2023-08-30T13:37:13;14.00;;;7.10;;
1010;SDS011;494;48.744;10.106;2023-08-30T13:39:50;16.43;;;6.70;;
1010;SDS011;494;48.744;10.106;2023-08-30T13:42:24;14.23;;;6.50;;
1010;SDS011;494;48.744;10.106;2023-08-30T13:44:55;13.83;;;6.40;;
1010;SDS011;494;48.744;10.106;2023-08-30T13:47:25;13.97;;;6.90;;
1010;SDS011;494;48.744;10.106;2023-08-30T13:49:59;14.57;;;7.07;;
1010;SDS011;494;48.744;10.106;2023-08-30T13:52:31;12.47;;;6.23;;
1010;SDS011;494;48.744;10.106;2023-08-30T13:55:02;12.20;;;5.80;;
1010;SDS011;494;48.744;10.106;2023-08-30T13:57:33;12.30;;;6.13;;
1010;SDS011;494;48.744;10.106;2023-08-30T14:00:06;11.53;;;5.50;;
1010;SDS011;494;48.744;10.106;2023-08-30T14:02:39;13.27;;;5.80;;
1010;SDS011;494;48.744;10.106;2023-08-30T14:05:12;10.90;;;5.40;;
1010;SDS011;494;48.744;10.106;2023-08-30T14:07:42;10.80;;;5.10;;
1010;SDS011;494;48.744;10.106;2023-08-30T14:10:14;11.73;;;5.37;;
1010;SDS011;494;48.744;10.106;2023-08-30T14:13:06;11.40;;;5.30;;
1010;SDS011;494;48.744;10.106;2023-08-30T14:15:36;15.20;;;4.93;;
1010;SDS011;494;48.744;10.106;2023-08-30T14:18:06;11.00;;;5.00;;
1010;SDS011;494;48.744;10.106;2023-08-30T14:20:37;12.27;;;5.37;;
1010;SDS011;494;48.744;10.106;2023-08-30T14:23:07;12.67;;;4.70;;
1010;SDS011;494;48.744;10.106;2023-08-30T14:25:43;13.00;;;5.00;;
1010;SDS011;494;48.744;10.106;2023-08-30T14:28:17;11.20;;;4.73;;
1010;SDS011;494;48.744;10.106;2023-08-30T14:30:51;10.90;;;4.40;;
1010;SDS011;494;48.744;10.106;2023-08-30T14:33:21;11.37;;;5.00;;
1010;SDS011;494;48.744;10.106;2023-08-30T14:35:55;11.60;;;5.10;;
1010;SDS011;494;48.744;10.106;2023-08-30T14:38:25;11.97;;;4.90;;
1010;SDS011;494;48.744;10.106;2023-08-30T14:40:54;10.60;;;4.53;;
1010;SDS011;494;48.744;10.106;2023-08-30T14:43:23;11.03;;;4.50;;
1010;SDS011;494;48.744;10.106;2023-08-30T14:45:58;15.70;;;4.80;;
1010;SDS011;494;48.744;10.106;2023-08-30T14:48:38;11.77;;;4.50;;
1010;SDS011;494;48.744;10.106;2023-08-30T14:51:11;11.07;;;4.70;;
1010;SDS011;494;48.744;10.106;2023-08-30T14:53:40;11.20;;;4.90;;
1010;SDS011;494;48.744;10.106;2023-08-30T14:56:12;11.70;;;4.87;;
1010;SDS011;494;48.744;10.106;2023-08-30T14:58:44;10.63;;;4.10;;
1010;SDS011;494;48.744;10.106;2023-08-30T15:01:16;13.70;;;5.00;;
1010;SDS011;494;48.744;10.106;2023-08-30T15:03:46;11.47;;;4.70;;
1010;SDS011;494;48.744;10.106;2023-08-30T15:06:19;11.27;;;4.87;;
1010;SDS011;494;48.744;10.106;2023-08-30T15:08:52;12.20;;;5.13;;
1010;SDS011;494;48.744;10.106;2023-08-30T15:11:21;11.57;;;4.90;;
1010;SDS011;494;48.744;10.106;2023-08-30T15:13:52;10.70;;;4.30;;
1010;SDS011;494;48.744;10.106;2023-08-30T15:16:37;13.20;;;4.30;;
1010;SDS011;494;48.744;10.106;2023-08-30T15:19:07;13.90;;;5.10;;
1010;SDS011;494;48.744;10.106;2023-08-30T15:24:39;13.30;;;6.93;;
1010;SDS011;494;48.744;10.106;2023-08-30T15:27:08;11.60;;;6.00;;
1010;SDS011;494;48.744;10.106;2023-08-30T15:29:36;14.90;;;7.40;;
1010;SDS011;494;48.744;10.106;2023-08-30T15:32:05;14.23;;;6.97;;
1010;SDS011;494;48.744;10.106;2023-08-30T15:34:36;12.73;;;6.40;;
1010;SDS011;494;48.744;10.106;2023-08-30T15:37:05;11.77;;;6.83;;
1010;SDS011;494;48.744;10.106;2023-08-30T15:39:34;12.13;;;6.97;;
1010;SDS011;494;48.744;10.106;2023-08-30T15:42:05;11.70;;;6.40;;
1010;SDS011;494;48.744;10.106;2023-08-30T15:44:35;12.23;;;7.33;;
1010;SDS011;494;48.744;10.106;2023-08-30T15:47:11;11.30;;;6.07;;
1010;SDS011;494;48.744;10.106;2023-08-30T15:49:39;12.50;;;7.33;;
1010;SDS011;494;48.744;10.106;2023-08-30T15:52:08;12.70;;;7.20;;
1010;SDS011;494;48.744;10.106;2023-08-30T15:54:37;12.00;;;6.70;;
1010;SDS011;494;48.744;10.106;2023-08-30T15:57:08;12.73;;;6.80;;
1010;SDS011;494;48.744;10.106;2023-08-30T15:59:37;12.60;;;7.30;;
1010;SDS011;494;48.744;10.106;2023-08-30T16:02:10;11.93;;;6.53;;
1010;SDS011;494;48.744;10.106;2023-08-30T16:04:39;12.20;;;6.30;;
1010;SDS011;494;48.744;10.106;2023-08-30T16:07:08;11.30;;;5.47;;
1010;SDS011;494;48.744;10.106;2023-08-30T16:09:37;10.43;;;4.97;;
1010;SDS011;494;48.744;10.106;2023-08-30T16:12:08;11.90;;;4.80;;
1010;SDS011;494;48.744;10.106;2023-08-30T16:14:39;12.30;;;4.10;;
1010;SDS011;494;48.744;10.106;2023-08-30T16:17:08;11.30;;;4.27;;
1010;SDS011;494;48.744;10.106;2023-08-30T16:19:36;11.10;;;4.20;;
1010;SDS011;494;48.744;10.106;2023-08-30T16:22:05;10.57;;;4.60;;
1010;SDS011;494;48.744;10.106;2023-08-30T16:24:34;10.83;;;5.63;;
1010;SDS011;494;48.744;10.106;2023-08-30T16:27:03;11.97;;;5.90;;
1010;SDS011;494;48.744;10.106;2023-08-30T16:29:34;11.70;;;6.73;;
1010;SDS011;494;48.744;10.106;2023-08-30T16:32:03;11.00;;;6.47;;
1010;SDS011;494;48.744;10.106;2023-08-30T16:34:33;12.10;;;6.00;;
1010;SDS011;494;48.744;10.106;2023-08-30T16:37:03;11.00;;;5.83;;
1010;SDS011;494;48.744;10.106;2023-08-30T16:39:32;10.73;;;6.07;;
1010;SDS011;494;48.744;10.106;2023-08-30T16:42:01;11.30;;;6.17;;
1010;SDS011;494;48.744;10.106;2023-08-30T16:44:35;11.00;;;6.40;;
1010;SDS011;494;48.744;10.106;2023-08-30T16:47:04;11.20;;;6.57;;
1010;SDS011;494;48.744;10.106;2023-08-30T16:49:33;13.53;;;6.80;;
1010;SDS011;494;48.744;10.106;2023-08-30T16:52:02;11.70;;;6.60;;
1010;SDS011;494;48.744;10.106;2023-08-30T16:54:31;11.80;;;6.77;;
1010;SDS011;494;48.744;10.106;2023-08-30T16:57:00;13.57;;;7.47;;
1010;SDS011;494;48.744;10.106;2023-08-30T16:59:29;11.77;;;7.37;;
1010;SDS011;494;48.744;10.106;2023-08-30T17:02:00;11.77;;;5.73;;
1010;SDS011;494;48.744;10.106;2023-08-30T17:04:31;11.43;;;6.40;;
1010;SDS011;494;48.744;10.106;2023-08-30T17:07:02;13.07;;;6.97;;
1010;SDS011;494;48.744;10.106;2023-08-30T17:09:32;11.63;;;5.57;;
1010;SDS011;494;48.744;10.106;2023-08-30T17:12:04;11.63;;;6.00;;
1010;SDS011;494;48.744;10.106;2023-08-30T17:14:36;11.67;;;7.37;;
1010;SDS011;494;48.744;10.106;2023-08-30T17:17:07;10.60;;;5.00;;
1010;SDS011;494;48.744;10.106;2023-08-30T17:19:36;10.63;;;4.87;;
1010;SDS011;494;48.744;10.106;2023-08-30T17:22:05;12.20;;;5.63;;
1010;SDS011;494;48.744;10.106;2023-08-30T17:24:36;10.67;;;4.83;;
1010;SDS011;494;48.744;10.106;2023-08-30T17:27:08;11.33;;;5.47;;
1010;SDS011;494;48.744;10.106;2023-08-30T17:29:37;12.50;;;5.83;;
1010;SDS011;494;48.744;10.106;2023-08-30T17:32:10;11.87;;;5.23;;
1010;SDS011;494;48.744;10.106;2023-08-30T17:34:39;11.67;;;5.23;;
1010;SDS011;494;48.744;10.106;2023-08-30T17:37:09;10.70;;;4.87;;
1010;SDS011;494;48.744;10.106;2023-08-30T17:39:40;10.87;;;4.30;;
1010;SDS011;494;48.744;10.106;2023-08-30T17:42:12;12.03;;;4.70;;
1010;SDS011;494;48.744;10.106;2023-08-30T17:44:43;10.40;;;5.13;;
1010;SDS011;494;48.744;10.106;2023-08-30T17:47:26;11.30;;;5.20;;
1010;SDS011;494;48.744;10.106;2023-08-30T17:49:59;12.47;;;5.50;;
1010;SDS011;494;48.744;10.106;2023-08-30T17:52:29;11.00;;;5.30;;
1010;SDS011;494;48.744;10.106;2023-08-30T17:55:02;12.00;;;5.40;;
1010;SDS011;494;48.744;10.106;2023-08-30T17:57:33;11.97;;;4.63;;
1010;SDS011;494;48.744;10.106;2023-08-30T18:00:03;11.30;;;4.93;;
1010;SDS011;494;48.744;10.106;2023-08-30T18:02:55;10.83;;;5.40;;
1010;SDS011;494;48.744;10.106;2023-08-30T18:05:24;12.50;;;5.93;;
1010;SDS011;494;48.744;10.106;2023-08-30T18:08:09;12.47;;;6.20;;
1010;SDS011;494;48.744;10.106;2023-08-30T18:10:39;11.77;;;5.37;;
1010;SDS011;494;48.744;10.106;2023-08-30T18:13:23;11.40;;;5.30;;
1010;SDS011;494;48.744;10.106;2023-08-30T18:15:53;11.37;;;5.30;;
1010;SDS011;494;48.744;10.106;2023-08-30T18:18:25;9.73;;;4.60;;
1010;SDS011;494;48.744;10.106;2023-08-30T18:20:54;11.07;;;5.30;;
1010;SDS011;494;48.744;10.106;2023-08-30T18:23:22;10.70;;;5.10;;
1010;SDS011;494;48.744;10.106;2023-08-30T18:25:51;13.30;;;5.03;;
1010;SDS011;494;48.744;10.106;2023-08-30T18:28:23;15.57;;;8.70;;
1010;SDS011;494;48.744;10.106;2023-08-30T18:30:55;11.83;;;6.20;;
1010;SDS011;494;48.744;10.106;2023-08-30T18:33:25;12.20;;;5.50;;
1010;SDS011;494;48.744;10.106;2023-08-30T18:35:54;12.77;;;6.00;;
1010;SDS011;494;48.744;10.106;2023-08-30T18:38:24;12.07;;;4.90;;
1010;SDS011;494;48.744;10.106;2023-08-30T18:40:53;12.93;;;5.40;;
1010;SDS011;494;48.744;10.106;2023-08-30T18:43:41;11.97;;;5.23;;
1010;SDS011;494;48.744;10.106;2023-08-30T18:46:10;11.53;;;5.37;;
1010;SDS011;494;48.744;10.106;2023-08-30T18:48:44;12.00;;;6.50;;
1010;SDS011;494;48.744;10.106;2023-08-30T18:51:12;15.07;;;5.93;;
1010;SDS011;494;48.744;10.106;2023-08-30T18:53:43;12.27;;;6.00;;
1010;SDS011;494;48.744;10.106;2023-08-30T18:56:14;11.00;;;5.43;;
1010;SDS011;494;48.744;10.106;2023-08-30T18:58:42;10.17;;;5.17;;
1010;SDS011;494;48.744;10.106;2023-08-30T19:01:13;10.60;;;5.00;;
1010;SDS011;494;48.744;10.106;2023-08-30T19:03:41;14.80;;;5.60;;
1010;SDS011;494;48.744;10.106;2023-08-30T19:06:12;12.47;;;5.70;;
1010;SDS011;494;48.744;10.106;2023-08-30T19:08:42;12.43;;;5.83;;
1010;SDS011;494;48.744;10.106;2023-08-30T19:11:10;12.93;;;6.50;;
1010;SDS011;494;48.744;10.106;2023-08-30T19:13:40;13.40;;;6.00;;
1010;SDS011;494;48.744;10.106;2023-08-30T19:16:09;11.67;;;5.97;;
1010;SDS011;494;48.744;10.106;2023-08-30T19:18:38;13.00;;;5.63;;
1010;SDS011;494;48.744;10.106;2023-08-30T19:21:09;11.27;;;6.13;;
1010;SDS011;494;48.744;10.106;2023-08-30T19:23:38;12.30;;;5.50;;
1010;SDS011;494;48.744;10.106;2023-08-30T19:26:09;14.13;;;5.83;;
1010;SDS011;494;48.744;10.106;2023-08-30T19:28:38;11.80;;;5.97;;
1010;SDS011;494;48.744;10.106;2023-08-30T19:31:08;15.90;;;8.10;;
1010;SDS011;494;48.744;10.106;2023-08-30T19:33:37;13.80;;;5.90;;
1010;SDS011;494;48.744;10.106;2023-08-30T19:36:06;14.10;;;5.90;;
1010;SDS011;494;48.744;10.106;2023-08-30T19:38:37;12.13;;;5.80;;
1010;SDS011;494;48.744;10.106;2023-08-30T19:41:06;12.73;;;5.93;;
1010;SDS011;494;48.744;10.106;2023-08-30T19:43:35;12.17;;;5.90;;
1010;SDS011;494;48.744;10.106;2023-08-30T19:46:04;11.80;;;6.40;;
1010;SDS011;494;48.744;10.106;2023-08-30T19:48:34;14.27;;;6.23;;
1010;SDS011;494;48.744;10.106;2023-08-30T19:51:04;13.67;;;6.90;;
1010;SDS011;494;48.744;10.106;2023-08-30T19:53:37;13.50;;;6.37;;
1010;SDS011;494;48.744;10.106;2023-08-30T19:56:05;13.13;;;6.57;;
1010;SDS011;494;48.744;10.106;2023-08-30T19:58:34;11.37;;;6.13;;
1010;SDS011;494;48.744;10.106;2023-08-30T20:01:04;12.50;;;6.90;;
1010;SDS011;494;48.744;10.106;2023-08-30T20:03:34;15.13;;;6.37;;
1010;SDS011;494;48.744;10.106;2023-08-30T20:06:05;12.57;;;6.10;;
1010;SDS011;494;48.744;10.106;2023-08-30T20:08:36;12.63;;;6.43;;
1010;SDS011;494;48.744;10.106;2023-08-30T20:11:06;13.60;;;6.10;;
1010;SDS011;494;48.744;10.106;2023-08-30T20:13:35;13.20;;;6.30;;
1010;SDS011;494;48.744;10.106;2023-08-30T20:16:04;12.67;;;6.70;;
1010;SDS011;494;48.744;10.106;2023-08-30T20:18:35;12.67;;;6.20;;
1010;SDS011;494;48.744;10.106;2023-08-30T20:21:04;14.10;;;6.50;;
1010;SDS011;494;48.744;10.106;2023-08-30T20:23:43;11.30;;;6.33;;
1010;SDS011;494;48.744;10.106;2023-08-30T20:26:12;14.33;;;6.70;;
1010;SDS011;494;48.744;10.106;2023-08-30T20:28:42;15.07;;;6.50;;
1010;SDS011;494;48.744;10.106;2023-08-30T20:31:13;14.23;;;6.17;;
1010;SDS011;494;48.744;10.106;2023-08-30T20:33:42;13.50;;;6.13;;
1010;SDS011;494;48.744;10.106;2023-08-30T20:36:14;12.30;;;6.47;;
1010;SDS011;494;48.744;10.106;2023-08-30T20:38:51;12.40;;;6.40;;
1010;SDS011;494;48.744;10.106;2023-08-30T20:41:20;13.30;;;6.70;;
1010;SDS011;494;48.744;10.106;2023-08-30T20:43:51;14.40;;;6.30;;
1010;SDS011;494;48.744;10.106;2023-08-30T20:46:20;12.07;;;6.60;;
1010;SDS011;494;48.744;10.106;2023-08-30T20:48:49;11.93;;;6.50;;
1010;SDS011;494;48.744;10.106;2023-08-30T20:51:18;13.67;;;6.90;;
1010;SDS011;494;48.744;10.106;2023-08-30T20:53:47;12.97;;;6.67;;
1010;SDS011;494;48.744;10.106;2023-08-30T20:56:18;16.37;;;6.40;;
1010;SDS011;494;48.744;10.106;2023-08-30T20:58:49;13.40;;;6.57;;
1010;SDS011;494;48.744;10.106;2023-08-30T21:01:21;12.20;;;6.73;;
1010;SDS011;494;48.744;10.106;2023-08-30T21:03:57;14.03;;;6.53;;
1010;SDS011;494;48.744;10.106;2023-08-30T21:06:28;16.00;;;6.87;;
1010;SDS011;494;48.744;10.106;2023-08-30T21:08:58;12.73;;;6.40;;
1010;SDS011;494;48.744;10.106;2023-08-30T21:11:30;13.27;;;6.80;;
1010;SDS011;494;48.744;10.106;2023-08-30T21:14:00;15.20;;;6.70;;
1010;SDS011;494;48.744;10.106;2023-08-30T21:16:29;11.80;;;7.00;;
1010;SDS011;494;48.744;10.106;2023-08-30T21:19:02;17.73;;;7.70;;
1010;SDS011;494;48.744;10.106;2023-08-30T21:21:31;15.87;;;8.73;;
1010;SDS011;494;48.744;10.106;2023-08-30T21:24:00;12.80;;;7.80;;
1010;SDS011;494;48.744;10.106;2023-08-30T21:26:32;14.93;;;9.10;;